sensor_id;sensor_type;location;lat;lon;timestamp;pressure;altitude;pressure_sealevel;temperature;humidity
37238;BME280;23129;49.662;8.448;2023-08-06T00:00:43;99833.13;;;16.21;100.00
37238;BME280;23129;49.662;8.448;2023-08-06T00:03:12;99835.56;;;16.24;100.00
37238;BME280;23129;49.662;8.448;2023-08-06T00:05:42;99823.09;;;16.26;100.00
37238;BME280;23129;49.662;8.448;2023-08-06T00:08:12;99817.81;;;16.26;100.00
37238;BME280;23129;49.662;8.448;2023-08-06T00:10:41;99816.13;;;16.25;100.00
37238;BME280;23129;49.662;8.448;2023-08-06T00:13:09;99815.16;;;16.26;100.00
37238;BME280;23129;49.662;8.448;2023-08-06T00:15:38;99814.22;;;16.27;100.00
37238;BME280;23129;49.662;8.448;2023-08-06T00:18:06;99812.53;;;16.26;100.00
37238;BME280;23129;49.662;8.448;2023-08-06T00:20:35;99809.22;;;16.23;100.00
37238;BME280;23129;49.662;8.448;2023-08-06T00:23:06;99802.31;;;16.20;100.00
37238;BME280;23129;49.662;8.448;2023-08-06T00:25:37;99794.56;;;16.17;100.00
37238;BME280;23129;49.662;8.448;2023-08-06T00:28:05;99790.41;;;16.13;100.00
37238;BME280;23129;49.662;8.448;2023-08-06T00:30:34;99780.94;;;16.09;100.00
37238;BME280;23129;49.662;8.448;2023-08-06T00:33:03;99782.09;;;16.05;100.00
37238;BME280;23129;49.662;8.448;2023-08-06T00:35:32;99785.00;;;16.00;100.00
37238;BME280;23129;49.662;8.448;2023-08-06T00:38:00;99779.91;;;15.97;100.00
37238;BME280;23129;49.662;8.448;2023-08-06T00:40:29;99771.31;;;15.93;100.00
37238;BME280;23129;49.662;8.448;2023-08-06T00:42:59;99775.88;;;15.91;100.00
37238;BME280;23129;49.662;8.448;2023-08-06T00:45:28;99782.09;;;15.90;100.00
37238;BME280;23129;49.662;8.448;2023-08-06T00:47:58;99769.88;;;15.88;100.00
37238;BME280;23129;49.662;8.448;2023-08-06T00:50:27;99762.06;;;15.86;100.00
37238;BME280;23129;49.662;8.448;2023-08-06T00:52:55;99772.81;;;15.83;100.00
37238;BME280;23129;49.662;8.448;2023-08-06T00:55:25;99756.31;;;15.80;100.00
37238;BME280;23129;49.662;8.448;2023-08-06T00:57:54;99759.03;;;15.78;100.00
37238;BME280;23129;49.662;8.448;2023-08-06T01:00:26;99759.88;;;15.79;100.00
37238;BME280;23129;49.662;8.448;2023-08-06T01:02:55;99759.59;;;15.83;100.00
37238;BME280;23129;49.662;8.448;2023-08-06T01:05:24;99755.06;;;15.85;100.00
37238;BME280;23129;49.662;8.448;2023-08-06T01:08:06;99754.88;;;15.88;100.00
37238;BME280;23129;49.662;8.448;2023-08-06T01:10:44;99755.75;;;15.89;100.00
37238;BME280;23129;49.662;8.448;2023-08-06T01:13:22;99744.13;;;15.91;100.00
37238;BME280;23129;49.662;8.448;2023-08-06T01:15:56;99744.13;;;15.91;100.00
37238;BME280;23129;49.662;8.448;2023-08-06T01:18:26;99742.59;;;15.87;100.00
37238;BME280;23129;49.662;8.448;2023-08-06T01:21:01;99736.66;;;15.84;100.00
37238;BME280;23129;49.662;8.448;2023-08-06T01:23:30;99739.38;;;15.82;100.00
37238;BME280;23129;49.662;8.448;2023-08-06T01:26:05;99736.84;;;15.81;100.00
37238;BME280;23129;49.662;8.448;2023-08-06T01:28:44;99731.75;;;15.78;100.00
37238;BME280;23129;49.662;8.448;2023-08-06T01:31:21;99738.81;;;15.77;100.00
37238;BME280;23129;49.662;8.448;2023-08-06T01:33:54;99732.59;;;15.78;100.00
37238;BME280;23129;49.662;8.448;2023-08-06T01:36:26;99723.50;;;15.82;100.00
37238;BME280;23129;49.662;8.448;2023-08-06T01:38:55;99720.59;;;15.87;100.00
37238;BME280;23129;49.662;8.448;2023-08-06T01:41:25;99717.69;;;15.91;100.00
37238;BME280;23129;49.662;8.448;2023-08-06T01:43:54;99727.88;;;15.97;100.00
37238;BME280;23129;49.662;8.448;2023-08-06T01:46:23;99722.22;;;16.04;100.00
37238;BME280;23129;49.662;8.448;2023-08-06T01:48:51;99720.09;;;16.09;100.00
37238;BME280;23129;49.662;8.448;2023-08-06T01:51:20;99716.16;;;16.16;100.00
37238;BME280;23129;49.662;8.448;2023-08-06T01:53:50;99721.06;;;16.22;100.00
37238;BME280;23129;49.662;8.448;2023-08-06T01:56:18;99713.66;;;16.27;100.00
37238;BME280;23129;49.662;8.448;2023-08-06T01:58:48;99704.59;;;16.31;100.00
37238;BME280;23129;49.662;8.448;2023-08-06T02:01:18;99711.56;;;16.32;100.00
37238;BME280;23129;49.662;8.448;2023-08-06T02:03:46;99718.75;;;16.30;100.00
37238;BME280;23129;49.662;8.448;2023-08-06T02:06:15;99714.53;;;16.28;100.00
37238;BME280;23129;49.662;8.448;2023-08-06T02:08:45;99717.25;;;16.26;100.00
37238;BME280;23129;49.662;8.448;2023-08-06T02:11:16;99713.84;;;16.24;100.00
37238;BME280;23129;49.662;8.448;2023-08-06T02:13:46;99713.13;;;16.22;100.00
37238;BME280;23129;49.662;8.448;2023-08-06T02:16:19;99702.63;;;16.20;100.00
37238;BME280;23129;49.662;8.448;2023-08-06T02:18:47;99694.78;;;16.19;100.00
37238;BME280;23129;49.662;8.448;2023-08-06T02:21:16;99693.06;;;16.18;100.00
37238;BME280;23129;49.662;8.448;2023-08-06T02:23:44;99693.94;;;16.18;100.00
37238;BME280;23129;49.662;8.448;2023-08-06T02:26:13;99691.38;;;16.17;100.00
37238;BME280;23129;49.662;8.448;2023-08-06T02:28:43;99686.09;;;16.17;100.00
37238;BME280;23129;49.662;8.448;2023-08-06T02:31:14;99686.09;;;16.17;100.00
37238;BME280;23129;49.662;8.448;2023-08-06T02:33:42;99672.09;;;16.15;100.00
37238;BME280;23129;49.662;8.448;2023-08-06T02:36:11;99678.47;;;16.12;100.00
37238;BME280;23129;49.662;8.448;2023-08-06T02:38:39;99675.13;;;16.09;100.00
37238;BME280;23129;49.662;8.448;2023-08-06T02:41:08;99686.88;;;16.05;100.00
37238;BME280;23129;49.662;8.448;2023-08-06T02:43:37;99686.22;;;16.01;100.00
37238;BME280;23129;49.662;8.448;2023-08-06T02:46:08;99686.41;;;15.98;100.00
37238;BME280;23129;49.662;8.448;2023-08-06T02:48:38;99689.13;;;15.96;100.00
37238;BME280;23129;49.662;8.448;2023-08-06T02:51:07;99687.25;;;15.98;100.00
37238;BME280;23129;49.662;8.448;2023-08-06T02:53:35;99683.66;;;16.00;100.00
37238;BME280;23129;49.662;8.448;2023-08-06T02:56:08;99686.22;;;16.01;100.00
37238;BME280;23129;49.662;8.448;2023-08-06T02:59:11;99676.28;;;16.05;100.00
37238;BME280;23129;49.662;8.448;2023-08-06T03:01:54;99679.69;;;16.07;100.00
37238;BME280;23129;49.662;8.448;2023-08-06T03:04:31;99670.59;;;16.11;100.00
37238;BME280;23129;49.662;8.448;2023-08-06T03:07:00;99667.88;;;16.12;100.00
37238;BME280;23129;49.662;8.448;2023-08-06T03:09:37;99667.69;;;16.15;100.00
37238;BME280;23129;49.662;8.448;2023-08-06T03:12:07;99662.38;;;16.15;100.00
37238;BME280;23129;49.662;8.448;2023-08-06T03:14:37;99668.53;;;16.16;100.00
37238;BME280;23129;49.662;8.448;2023-08-06T03:17:09;99656.03;;;16.18;100.00
37238;BME280;23129;49.662;8.448;2023-08-06T03:19:37;99650.66;;;16.19;100.00
37238;BME280;23129;49.662;8.448;2023-08-06T03:22:07;99660.41;;;16.19;100.00
37238;BME280;23129;49.662;8.448;2023-08-06T03:24:38;99653.38;;;16.18;100.00
37238;BME280;23129;49.662;8.448;2023-08-06T03:27:08;99648.84;;;16.20;100.00
37238;BME280;23129;49.662;8.448;2023-08-06T03:29:39;99649.69;;;16.20;100.00
37238;BME280;23129;49.662;8.448;2023-08-06T03:32:09;99639.97;;;16.21;100.00
37238;BME280;23129;49.662;8.448;2023-08-06T03:34:39;99639.13;;;16.20;100.00
37238;BME280;23129;49.662;8.448;2023-08-06T03:37:08;99650.53;;;16.21;100.00
37238;BME280;23129;49.662;8.448;2023-08-06T03:39:36;99656.78;;;16.20;100.00
37238;BME280;23129;49.662;8.448;2023-08-06T03:42:05;99648.97;;;16.18;100.00
37238;BME280;23129;49.662;8.448;2023-08-06T03:44:34;99648.19;;;16.16;100.00
37238;BME280;23129;49.662;8.448;2023-08-06T03:47:03;99651.13;;;16.12;100.00
37238;BME280;23129;49.662;8.448;2023-08-06T03:49:35;99644.34;;;16.08;100.00
37238;BME280;23129;49.662;8.448;2023-08-06T03:52:05;99649.19;;;16.01;100.00
37238;BME280;23129;49.662;8.448;2023-08-06T03:54:34;99647.56;;;15.98;100.00
37238;BME280;23129;49.662;8.448;2023-08-06T03:57:03;99648.63;;;15.96;100.00
37238;BME280;23129;49.662;8.448;2023-08-06T03:59:32;99657.59;;;15.93;100.00
37238;BME280;23129;49.662;8.448;2023-08-06T04:02:01;99657.00;;;15.88;100.00
37238;BME280;23129;49.662;8.448;2023-08-06T04:04:30;99658.53;;;15.78;100.00
37238;BME280;23129;49.662;8.448;2023-08-06T04:07:00;99664.22;;;15.72;100.00
37238;BME280;23129;49.662;8.448;2023-08-06T04:09:29;99651.59;;;15.61;100.00
37238;BME280;23129;49.662;8.448;2023-08-06T04:11:57;99655.97;;;15.48;100.00
37238;BME280;23129;49.662;8.448;2023-08-06T04:14:30;99659.25;;;15.37;100.00
37238;BME280;23129;49.662;8.448;2023-08-06T04:16:58;99653.47;;;15.30;100.00
37238;BME280;23129;49.662;8.448;2023-08-06T04:19:27;99646.69;;;15.26;100.00
37238;BME280;23129;49.662;8.448;2023-08-06T04:21:56;99657.34;;;15.25;100.00
37238;BME280;23129;49.662;8.448;2023-08-06T04:24:26;99651.97;;;15.26;100.00
37238;BME280;23129;49.662;8.448;2023-08-06T04:26:55;99654.50;;;15.28;100.00
37238;BME280;23129;49.662;8.448;2023-08-06T04:29:24;99659.63;;;15.31;100.00
37238;BME280;23129;49.662;8.448;2023-08-06T04:31:53;99655.09;;;15.33;100.00
37238;BME280;23129;49.662;8.448;2023-08-06T04:34:22;99660.13;;;15.38;100.00
37238;BME280;23129;49.662;8.448;2023-08-06T04:36:51;99658.88;;;15.43;100.00
37238;BME280;23129;49.662;8.448;2023-08-06T04:39:20;99651.72;;;15.45;100.00
37238;BME280;23129;49.662;8.448;2023-08-06T04:41:50;99653.13;;;15.51;100.00
37238;BME280;23129;49.662;8.448;2023-08-06T04:44:19;99642.28;;;15.56;100.00
37238;BME280;23129;49.662;8.448;2023-08-06T04:46:49;99648.41;;;15.56;100.00
37238;BME280;23129;49.662;8.448;2023-08-06T04:49:17;99650.97;;;15.58;100.00
37238;BME280;23129;49.662;8.448;2023-08-06T04:51:46;99647.38;;;15.59;100.00
37238;BME280;23129;49.662;8.448;2023-08-06T04:54:15;99646.50;;;15.58;100.00
37238;BME280;23129;49.662;8.448;2023-08-06T04:56:43;99654.63;;;15.55;100.00
37238;BME280;23129;49.662;8.448;2023-08-06T04:59:13;99649.53;;;15.52;100.00
37238;BME280;23129;49.662;8.448;2023-08-06T05:01:42;99652.28;;;15.50;100.00
37238;BME280;23129;49.662;8.448;2023-08-06T05:04:10;99658.50;;;15.49;100.00
37238;BME280;23129;49.662;8.448;2023-08-06T05:06:39;99652.84;;;15.41;100.00
37238;BME280;23129;49.662;8.448;2023-08-06T05:09:08;99655.69;;;15.38;100.00
37238;BME280;23129;49.662;8.448;2023-08-06T05:11:37;99655.88;;;15.35;100.00
37238;BME280;23129;49.662;8.448;2023-08-06T05:14:05;99656.72;;;15.36;100.00
37238;BME280;23129;49.662;8.448;2023-08-06T05:16:35;99661.88;;;15.37;100.00
37238;BME280;23129;49.662;8.448;2023-08-06T05:19:04;99663.50;;;15.40;100.00
37238;BME280;23129;49.662;8.448;2023-08-06T05:21:33;99653.59;;;15.43;100.00
37238;BME280;23129;49.662;8.448;2023-08-06T05:24:01;99652.47;;;15.47;100.00
37238;BME280;23129;49.662;8.448;2023-08-06T05:26:30;99658.50;;;15.49;100.00
37238;BME280;23129;49.662;8.448;2023-08-06T05:28:58;99663.50;;;15.54;100.00
37238;BME280;23129;49.662;8.448;2023-08-06T05:31:27;99663.63;;;15.52;100.00
37238;BME280;23129;49.662;8.448;2023-08-06T05:33:58;99658.34;;;15.52;100.00
37238;BME280;23129;49.662;8.448;2023-08-06T05:36:27;99655.69;;;15.52;100.00
37238;BME280;23129;49.662;8.448;2023-08-06T05:38:56;99667.00;;;15.55;100.00
37238;BME280;23129;49.662;8.448;2023-08-06T05:41:25;99658.16;;;15.56;100.00
37238;BME280;23129;49.662;8.448;2023-08-06T05:43:53;99663.44;;;15.56;100.00
37238;BME280;23129;49.662;8.448;2023-08-06T05:46:22;99658.88;;;15.58;100.00
37238;BME280;23129;49.662;8.448;2023-08-06T05:48:51;99659.66;;;15.60;100.00
37238;BME280;23129;49.662;8.448;2023-08-06T05:51:21;99663.06;;;15.62;100.00
37238;BME280;23129;49.662;8.448;2023-08-06T05:53:49;99675.31;;;15.63;100.00
37238;BME280;23129;49.662;8.448;2023-08-06T05:56:18;99671.72;;;15.64;100.00
37238;BME280;23129;49.662;8.448;2023-08-06T05:58:47;99657.44;;;15.68;100.00
37238;BME280;23129;49.662;8.448;2023-08-06T06:01:17;99665.91;;;15.73;100.00
37238;BME280;23129;49.662;8.448;2023-08-06T06:03:46;99665.53;;;15.79;100.00
37238;BME280;23129;49.662;8.448;2023-08-06T06:06:15;99656.28;;;15.86;100.00
37238;BME280;23129;49.662;8.448;2023-08-06T06:08:46;99657.59;;;15.93;100.00
37238;BME280;23129;49.662;8.448;2023-08-06T06:11:15;99664.22;;;16.01;100.00
37238;BME280;23129;49.662;8.448;2023-08-06T06:13:43;99669.13;;;16.07;100.00
37238;BME280;23129;49.662;8.448;2023-08-06T06:16:12;99662.66;;;16.11;100.00
37238;BME280;23129;49.662;8.448;2023-08-06T06:18:41;99665.13;;;16.14;100.00
37238;BME280;23129;49.662;8.448;2023-08-06T06:21:10;99667.69;;;16.15;100.00
37238;BME280;23129;49.662;8.448;2023-08-06T06:23:39;99672.97;;;16.15;100.00
37238;BME280;23129;49.662;8.448;2023-08-06T06:26:10;99676.47;;;16.16;100.00
37238;BME280;23129;49.662;8.448;2023-08-06T06:28:39;99670.22;;;16.17;100.00
37238;BME280;23129;49.662;8.448;2023-08-06T06:31:07;99675.31;;;16.20;100.00
37238;BME280;23129;49.662;8.448;2023-08-06T06:33:37;99675.13;;;16.23;100.00
37238;BME280;23129;49.662;8.448;2023-08-06T06:36:05;99680.97;;;16.28;100.00
37238;BME280;23129;49.662;8.448;2023-08-06T06:38:35;99681.53;;;16.33;100.00
37238;BME280;23129;49.662;8.448;2023-08-06T06:41:04;99681.53;;;16.33;100.00
37238;BME280;23129;49.662;8.448;2023-08-06T06:43:34;99680.22;;;16.26;100.00
37238;BME280;23129;49.662;8.448;2023-08-06T06:46:03;99691.94;;;16.22;100.00
37238;BME280;23129;49.662;8.448;2023-08-06T06:48:32;99691.19;;;16.20;100.00
37238;BME280;23129;49.662;8.448;2023-08-06T06:51:01;99690.63;;;16.15;100.00
37238;BME280;23129;49.662;8.448;2023-08-06T06:53:30;99699.06;;;16.07;100.00
37238;BME280;23129;49.662;8.448;2023-08-06T06:56:03;99674.78;;;16.01;100.00
37238;BME280;23129;49.662;8.448;2023-08-06T06:58:33;99705.31;;;15.92;100.00
37238;BME280;23129;49.662;8.448;2023-08-06T07:01:02;99682.06;;;15.83;100.00
37238;BME280;23129;49.662;8.448;2023-08-06T07:03:31;99674.59;;;15.75;100.00
37238;BME280;23129;49.662;8.448;2023-08-06T07:06:02;99683.00;;;15.67;100.00
37238;BME280;23129;49.662;8.448;2023-08-06T07:08:31;99686.09;;;15.60;100.00
37238;BME280;23129;49.662;8.448;2023-08-06T07:11:03;99689.88;;;15.56;100.00
37238;BME280;23129;49.662;8.448;2023-08-06T07:13:34;99690.06;;;15.52;100.00
37238;BME280;23129;49.662;8.448;2023-08-06T07:16:04;99684.78;;;15.52;100.00
37238;BME280;23129;49.662;8.448;2023-08-06T07:18:34;99674.19;;;15.52;100.00
37238;BME280;23129;49.662;8.448;2023-08-06T07:21:03;99686.28;;;15.57;100.00
37238;BME280;23129;49.662;8.448;2023-08-06T07:23:31;99686.09;;;15.60;100.00
37238;BME280;23129;49.662;8.448;2023-08-06T07:26:00;99687.97;;;15.58;100.00
37238;BME280;23129;49.662;8.448;2023-08-06T07:28:29;99695.34;;;15.52;100.00
37238;BME280;23129;49.662;8.448;2023-08-06T07:30:58;99694.75;;;15.47;100.00
37238;BME280;23129;49.662;8.448;2023-08-06T07:33:27;99694.19;;;15.42;100.00
37238;BME280;23129;49.662;8.448;2023-08-06T07:35:56;99694.34;;;15.39;100.00
37238;BME280;23129;49.662;8.448;2023-08-06T07:38:24;99689.06;;;15.39;100.00
37238;BME280;23129;49.662;8.448;2023-08-06T07:40:53;99692.31;;;15.44;100.00
37238;BME280;23129;49.662;8.448;2023-08-06T07:43:22;99696.84;;;15.57;100.00
37238;BME280;23129;49.662;8.448;2023-08-06T07:45:51;99700.47;;;15.70;100.00
37238;BME280;23129;49.662;8.448;2023-08-06T07:48:20;99696.88;;;15.85;100.00
37238;BME280;23129;49.662;8.448;2023-08-06T07:50:51;99697.63;;;16.02;100.00
37238;BME280;23129;49.662;8.448;2023-08-06T07:53:20;99682.09;;;16.24;100.00
37238;BME280;23129;49.662;8.448;2023-08-06T07:55:53;99680.56;;;16.49;100.00
37238;BME280;23129;49.662;8.448;2023-08-06T07:58:22;99689.94;;;16.81;100.00
37238;BME280;23129;49.662;8.448;2023-08-06T08:00:51;99692.19;;;17.00;100.00
37238;BME280;23129;49.662;8.448;2023-08-06T08:03:21;99686.63;;;17.30;100.00
37238;BME280;23129;49.662;8.448;2023-08-06T08:05:50;99681.88;;;17.61;100.00
37238;BME280;23129;49.662;8.448;2023-08-06T08:08:23;99680.38;;;17.70;100.00
37238;BME280;23129;49.662;8.448;2023-08-06T08:10:52;99673.63;;;17.78;100.00
37238;BME280;23129;49.662;8.448;2023-08-06T08:13:22;99672.34;;;17.84;100.00
37238;BME280;23129;49.662;8.448;2023-08-06T08:15:57;99669.56;;;17.86;100.00
37238;BME280;23129;49.662;8.448;2023-08-06T08:18:28;99667.25;;;17.81;100.00
37238;BME280;23129;49.662;8.448;2023-08-06T08:20:58;99661.50;;;17.74;100.00
37238;BME280;23129;49.662;8.448;2023-08-06T08:23:26;99668.09;;;17.82;100.00
37238;BME280;23129;49.662;8.448;2023-08-06T08:25:55;99669.56;;;17.86;100.00
37238;BME280;23129;49.662;8.448;2023-08-06T08:28:24;99658.50;;;17.92;100.00
37238;BME280;23129;49.662;8.448;2023-08-06T08:30:52;99654.84;;;18.18;100.00
37238;BME280;23129;49.662;8.448;2023-08-06T08:33:22;99655.56;;;18.57;100.00
37238;BME280;23129;49.662;8.448;2023-08-06T08:35:52;99650.31;;;18.68;100.00
37238;BME280;23129;49.662;8.448;2023-08-06T08:38:21;99651.63;;;18.87;100.00
37238;BME280;23129;49.662;8.448;2023-08-06T08:40:53;99645.22;;;18.89;100.00
37238;BME280;23129;49.662;8.448;2023-08-06T08:43:23;99644.16;;;18.92;100.00
37238;BME280;23129;49.662;8.448;2023-08-06T08:45:52;99638.84;;;18.92;100.00
37238;BME280;23129;49.662;8.448;2023-08-06T08:48:23;99640.38;;;18.83;100.00
37238;BME280;23129;49.662;8.448;2023-08-06T08:50:53;99634.13;;;18.71;100.00
37238;BME280;23129;49.662;8.448;2023-08-06T08:53:22;99640.66;;;18.67;100.00
37238;BME280;23129;49.662;8.448;2023-08-06T08:55:50;99629.00;;;18.57;100.00
37238;BME280;23129;49.662;8.448;2023-08-06T08:58:19;99633.47;;;18.57;100.00
37238;BME280;23129;49.662;8.448;2023-08-06T09:00:48;99630.25;;;18.64;100.00
37238;BME280;23129;49.662;8.448;2023-08-06T09:03:17;99631.47;;;18.71;100.00
37238;BME280;23129;49.662;8.448;2023-08-06T09:05:52;99635.75;;;18.74;100.00
37238;BME280;23129;49.662;8.448;2023-08-06T09:08:27;99647.41;;;18.71;100.00
37238;BME280;23129;49.662;8.448;2023-08-06T09:10:59;99633.28;;;18.71;100.00
37238;BME280;23129;49.662;8.448;2023-08-06T09:13:31;99640.41;;;18.70;100.00
37238;BME280;23129;49.662;8.448;2023-08-06T09:16:00;99633.28;;;18.71;100.00
37238;BME280;23129;49.662;8.448;2023-08-06T09:18:30;99648.72;;;18.79;100.00
37238;BME280;23129;49.662;8.448;2023-08-06T09:21:00;99632.06;;;18.88;100.00
37238;BME280;23129;49.662;8.448;2023-08-06T09:23:30;99639.44;;;18.96;100.00
37238;BME280;23129;49.662;8.448;2023-08-06T09:26:00;99623.41;;;18.97;100.00
37238;BME280;23129;49.662;8.448;2023-08-06T09:28:37;99621.81;;;18.95;100.00
37238;BME280;23129;49.662;8.448;2023-08-06T09:31:07;99627.75;;;18.98;100.00
37238;BME280;23129;49.662;8.448;2023-08-06T09:33:37;99632.81;;;19.01;100.00
37238;BME280;23129;49.662;8.448;2023-08-06T09:36:12;99632.59;;;19.04;100.00
37238;BME280;23129;49.662;8.448;2023-08-06T09:38:41;99622.47;;;19.09;100.00
37238;BME280;23129;49.662;8.448;2023-08-06T09:41:10;99633.81;;;19.11;100.00
37238;BME280;23129;49.662;8.448;2023-08-06T09:43:43;99622.34;;;19.11;100.00
37238;BME280;23129;49.662;8.448;2023-08-06T09:46:12;99612.44;;;19.13;100.00
37238;BME280;23129;49.662;8.448;2023-08-06T09:48:45;99617.19;;;19.21;100.00
37238;BME280;23129;49.662;8.448;2023-08-06T09:51:16;99616.69;;;19.27;100.00
37238;BME280;23129;49.662;8.448;2023-08-06T09:53:48;99631.53;;;19.29;100.00
37238;BME280;23129;49.662;8.448;2023-08-06T09:56:19;99633.88;;;19.45;100.00
37238;BME280;23129;49.662;8.448;2023-08-06T09:58:49;99631.50;;;19.76;100.00
37238;BME280;23129;49.662;8.448;2023-08-06T10:01:19;99617.72;;;19.71;100.00
37238;BME280;23129;49.662;8.448;2023-08-06T10:03:50;99624.94;;;19.57;100.00
37238;BME280;23129;49.662;8.448;2023-08-06T10:06:22;99629.28;;;19.47;100.00
37238;BME280;23129;49.662;8.448;2023-08-06T10:08:51;99632.16;;;19.44;100.00
37238;BME280;23129;49.662;8.448;2023-08-06T10:11:22;99631.34;;;19.55;100.00
37238;BME280;23129;49.662;8.448;2023-08-06T10:13:56;99626.66;;;19.70;100.00
37238;BME280;23129;49.662;8.448;2023-08-06T10:16:26;99631.50;;;19.87;100.00
37238;BME280;23129;49.662;8.448;2023-08-06T10:18:56;99637.28;;;19.92;100.00
37238;BME280;23129;49.662;8.448;2023-08-06T10:21:27;99627.03;;;19.88;100.00
37238;BME280;23129;49.662;8.448;2023-08-06T10:23:57;99644.81;;;19.76;100.00
37238;BME280;23129;49.662;8.448;2023-08-06T10:26:26;99643.06;;;19.52;100.00
37238;BME280;23129;49.662;8.448;2023-08-06T10:28:55;99651.38;;;19.25;100.00
37238;BME280;23129;49.662;8.448;2023-08-06T10:31:55;99652.16;;;19.03;100.00
37238;BME280;23129;49.662;8.448;2023-08-06T10:34:52;99660.56;;;18.86;100.00
37238;BME280;23129;49.662;8.448;2023-08-06T10:37:22;99674.91;;;18.59;100.00
37238;BME280;23129;49.662;8.448;2023-08-06T10:39:52;99671.47;;;18.46;100.00
37238;BME280;23129;49.662;8.448;2023-08-06T10:42:28;99674.78;;;18.37;100.00
37238;BME280;23129;49.662;8.448;2023-08-06T10:45:13;99677.75;;;18.32;100.00
37238;BME280;23129;49.662;8.448;2023-08-06T10:47:45;99675.00;;;18.34;100.00
37238;BME280;23129;49.662;8.448;2023-08-06T10:50:15;99673.50;;;18.30;100.00
37238;BME280;23129;49.662;8.448;2023-08-06T10:52:46;99687.75;;;18.29;100.00
37238;BME280;23129;49.662;8.448;2023-08-06T10:55:23;99683.50;;;18.26;100.00
37238;BME280;23129;49.662;8.448;2023-08-06T10:57:52;99686.16;;;18.26;100.00
37238;BME280;23129;49.662;8.448;2023-08-06T11:00:22;99684.97;;;18.30;100.00
37238;BME280;23129;49.662;8.448;2023-08-06T11:02:52;99689.22;;;18.33;100.00
37238;BME280;23129;49.662;8.448;2023-08-06T11:05:22;99690.50;;;18.40;100.00
37238;BME280;23129;49.662;8.448;2023-08-06T11:07:52;99696.81;;;18.50;100.00
37238;BME280;23129;49.662;8.448;2023-08-06T11:10:20;99701.13;;;18.64;100.00
37238;BME280;23129;49.662;8.448;2023-08-06T11:12:49;99709.50;;;18.70;100.00
37238;BME280;23129;49.662;8.448;2023-08-06T11:15:19;99708.44;;;18.60;100.00
37238;BME280;23129;49.662;8.448;2023-08-06T11:17:48;99721.03;;;18.58;100.00
37238;BME280;23129;49.662;8.448;2023-08-06T11:20:17;99720.28;;;18.56;100.00
37238;BME280;23129;49.662;8.448;2023-08-06T11:22:49;99737.34;;;18.65;100.00
37238;BME280;23129;49.662;8.448;2023-08-06T11:25:22;99731.31;;;18.76;100.00
37238;BME280;23129;49.662;8.448;2023-08-06T11:27:51;99730.72;;;18.83;100.00
37238;BME280;23129;49.662;8.448;2023-08-06T11:30:19;99730.88;;;18.93;100.00
37238;BME280;23129;49.662;8.448;2023-08-06T11:32:48;99718.09;;;18.98;100.00
37238;BME280;23129;49.662;8.448;2023-08-06T11:35:17;99737.69;;;18.97;100.00
37238;BME280;23129;49.662;8.448;2023-08-06T11:37:46;99735.50;;;19.02;100.00
37238;BME280;23129;49.662;8.448;2023-08-06T11:40:15;99735.06;;;19.08;100.00
37238;BME280;23129;49.662;8.448;2023-08-06T11:42:47;99736.78;;;19.09;100.00
37238;BME280;23129;49.662;8.448;2023-08-06T11:45:16;99749.31;;;19.07;100.00
37238;BME280;23129;49.662;8.448;2023-08-06T11:47:50;99762.00;;;19.04;100.00
37238;BME280;23129;49.662;8.448;2023-08-06T11:50:24;99757.66;;;19.03;100.00
37238;BME280;23129;49.662;8.448;2023-08-06T11:52:57;99758.13;;;19.08;100.00
37238;BME280;23129;49.662;8.448;2023-08-06T11:55:28;99751.97;;;19.07;100.00
37238;BME280;23129;49.662;8.448;2023-08-06T11:57:59;99776.06;;;18.93;100.00
37238;BME280;23129;49.662;8.448;2023-08-06T12:00:31;99771.16;;;18.76;100.00
37238;BME280;23129;49.662;8.448;2023-08-06T12:02:59;99780.47;;;18.68;100.00
37238;BME280;23129;49.662;8.448;2023-08-06T12:05:30;99783.06;;;18.57;100.00
37238;BME280;23129;49.662;8.448;2023-08-06T12:08:09;99788.56;;;18.54;100.00
37238;BME280;23129;49.662;8.448;2023-08-06T12:11:37;99785.22;;;18.52;100.00
37238;BME280;23129;49.662;8.448;2023-08-06T12:14:27;99785.00;;;18.55;100.00
37238;BME280;23129;49.662;8.448;2023-08-06T12:16:56;99787.13;;;18.50;100.00
37238;BME280;23129;49.662;8.448;2023-08-06T12:19:25;99800.06;;;18.42;100.00
37238;BME280;23129;49.662;8.448;2023-08-06T18:38:04;100214.03;;;16.56;100.00
37238;BME280;23129;49.662;8.448;2023-08-06T18:40:33;100206.25;;;16.53;100.00
37238;BME280;23129;49.662;8.448;2023-08-06T18:43:02;100224.59;;;16.56;100.00
37238;BME280;23129;49.662;8.448;2023-08-06T18:45:31;100220.09;;;16.58;100.00
37238;BME280;23129;49.662;8.448;2023-08-06T18:48:03;100206.06;;;16.56;100.00
37238;BME280;23129;49.662;8.448;2023-08-06T18:50:32;100221.28;;;16.52;100.00
37238;BME280;23129;49.662;8.448;2023-08-06T18:53:05;100211.72;;;16.50;100.00
37238;BME280;23129;49.662;8.448;2023-08-06T18:55:34;100222.47;;;16.47;100.00
37238;BME280;23129;49.662;8.448;2023-08-06T18:58:03;100224.34;;;16.44;100.00
37238;BME280;23129;49.662;8.448;2023-08-06T19:00:32;100235.97;;;16.42;100.00
37238;BME280;23129;49.662;8.448;2023-08-06T19:03:01;100236.13;;;16.39;100.00
37238;BME280;23129;49.662;8.448;2023-08-06T19:05:29;100236.13;;;16.39;100.00
37238;BME280;23129;49.662;8.448;2023-08-06T19:07:58;100244.16;;;16.37;100.00
37238;BME280;23129;49.662;8.448;2023-08-06T19:10:28;100239.91;;;16.35;100.00
37238;BME280;23129;49.662;8.448;2023-08-06T19:12:59;100254.25;;;16.31;100.00
37238;BME280;23129;49.662;8.448;2023-08-06T19:15:28;100240.41;;;16.26;100.00
37238;BME280;23129;49.662;8.448;2023-08-06T19:17:56;100252.00;;;16.23;100.00
37238;BME280;23129;49.662;8.448;2023-08-06T19:20:25;100257.47;;;16.20;100.00
37238;BME280;23129;49.662;8.448;2023-08-06T19:22:54;100259.50;;;16.15;100.00